Don's Testing Zone


Current Conditions
weather data
source:

National Weather Service
Fog Searcy, AR
Fog, 32°F
Sunday, August 19, 2018 6:56 AM CDT
Barometer: 29.93in/1013.9mb Barometer Steady
Wind: W at 20mph/31kmh
View other cities:
Searcy | Little Rock | Hot Springs | Russellville | More...
Astronomical Conditions (Clear Sky Clock)
Searcy Clear Sky Clock
Find more weather in Little Rock, AR
    

Radar Images

NWS
    Wx Underground

KARK
   

Solar-Terrestrial Data

NWS METAR weather data

ADDS - METARS form results





Aviation Digital Data Service (ADDS) Output produced by METARs form (1210 UTC 19 August 2018) found at http://www.aviationweather.gov/adds/metars/ 

KSRC 191156Z AUTO 00000KT 1/4SM FG OVC003 23/ A2993 RMK AO2 SLP139 6//// 7////T0228 10233 20217 53004

KSRC 191125Z AUTO 00000KT 1/4SM FG OVC003 23/ A2992 RMK AO2

KSRC 191109Z AUTO 00000KT 1/2SM FG BKN003 23/ A2991 RMK AO2

KSRC 191101Z AUTO 06004KT 1SM BR BKN003 22/ A2990 RMK AO2

KSRC 191056Z AUTO 00000KT 1/2SM FG VV003 22/ A2990 RMK AO2 SLP130 T0222

KSRC 191053Z AUTO 00000KT 1/2SM FG VV003 22/ A2990 RMK AO2

KSRC 191042Z AUTO 00000KT 1/4SM FG CLR 22/ A2989 RMK AO2

KSRC 191034Z AUTO 00000KT 3/4SM BR CLR 22/ A2989 RMK AO2

KSRC 191031Z AUTO 00000KT 1 1/2SM BR CLR 22/ A2989 RMK AO2 VIS 1/2V2 1/2

KSRC 191008Z AUTO 35004KT 3SM BR FEW009 23/ A2989 RMK AO2

KSRC 190956Z AUTO 01003KT 3SM BR FEW004 BKN009 23/ A2989 RMK AO2 SLP126 T0228

KSRC 190953Z AUTO 00000KT 3SM BR FEW004 BKN009 23/ A2989 RMK AO2

KSRC 190946Z AUTO 34003KT 1 1/4SM BR SCT004 BKN009 23/ A2990 RMK AO2

KSRC 190940Z AUTO 36003KT 1 1/4SM BR BKN004 BKN009 23/ A2990 RMK AO2 CIG 002V006

KSRC 190934Z AUTO 35003KT 1SM BR OVC002 23/23 A2990 RMK AO2 CIG 002V006

KSRC 190856Z AUTO 00000KT 1/4SM FG OVC002 23/ A2992 RMK AO2 SLP135 6//// T022853002

KSRC 190846Z AUTO 00000KT 1/4SM FG OVC002 23/ A2992 RMK AO2

KSRC 190830Z AUTO 00000KT 1/2SM FG BKN002 23/23 A2992 RMK AO2

KSRC 190826Z AUTO 19003KT 1SM BR VV002 23/23 A2992 RMK AO2

KSRC 190819Z AUTO 18004KT 1 1/4SM BR CLR 22/22 A2992 RMK AO2

KSRC 190817Z AUTO 18005KT 3/4SM BR CLR 22/22 A2992 RMK AO2

KSRC 190811Z AUTO 18006KT 1/4SM FG CLR 22/22 A2992 RMK AO2

KSRC 190805Z AUTO 00000KT 3/4SM BR CLR 22/22 A2991 RMK AO2

KSRC 190756Z AUTO 00000KT 1 1/2SM BR CLR 23/23 A2991 RMK AO2 VIS 1/2V3 SLP132T02280228

KSRC 190746Z AUTO 00000KT 1SM BR CLR 22/22 A2991 RMK AO2 VIS 1/4V5

KSRC 190710Z AUTO 00000KT 4SM BR CLR 23/23 A2991 RMK AO2

KSRC 190707Z AUTO 00000KT 1 1/4SM BR CLR 23/23 A2991 RMK AO2 VIS 1/4V5

KSRC 190700Z AUTO 00000KT 3/4SM BR CLR 23/ A2991 RMK AO2

KSRC 190656Z AUTO 00000KT 1 3/4SM BR CLR 23/ A2991 RMK AO2 VIS 1/2V4 SLP133T0228

KSRC 190556Z AUTO 00000KT 8SM CLR 23/23 A2992 RMK AO2 SLP135 6//// T0233023310300 20233 58006

KSRC 190456Z AUTO 00000KT 7SM CLR 24/ A2994 RMK AO2 SLP144 T0239 403280217

KSRC 190356Z AUTO 00000KT 10SM CLR 24/24 A2995 RMK AO2 SLP145 T02440244

KSRC 190256Z AUTO 00000KT 10SM FEW050 26/26 A2994 RMK AO2 SLP141 6//// T0261025651011

KSRC 190156Z AUTO 20003KT 10SM SCT037 BKN055 OVC070 26/26 A2993 RMK AO2 SLP140T02610256

KSRC 190056Z AUTO 00000KT 10SM BKN038 BKN048 28/24 A2992 RMK AO2 SLP135T02830244

KSRC 182356Z AUTO 19005KT 10SM FEW080 30/26 A2990 RMK AO2 SLP131 T03000256 1032820294 56007

KSRC 182256Z AUTO 20004KT 10SM SCT085 31/25 A2991 RMK AO2 SLP132 T03110250

KSRC 182156Z AUTO 16005KT 10SM CLR 32/25 A2991 RMK AO2 SLP133 T03220250

KSRC 182056Z AUTO 15006KT 9SM BKN031 OVC040 31/25 A2993 RMK AO2 SLP138 T0306025056021

KSRC 181956Z AUTO 21004KT 10SM BKN040 OVC055 32/24 A2995 RMK AO2 SLP144T03170239

KSRC 181918Z AUTO 00000KT 10SM SCT029 SCT060 31/24 A2996 RMK AO2

KSRC 181856Z AUTO 09005KT 10SM OVC029 31/24 A2997 RMK AO2 SLP151 T03110244

KSRC 181837Z AUTO 21004KT 10SM BKN029 31/24 A2997 RMK AO2

KSRC 181756Z AUTO VRB04KT 10SM FEW023 BKN036 OVC043 31/25 A2999 RMK AO2 SLP1596//// T03060250 10306 20222 58010

KSRC 181656Z AUTO 23003KT 10SM FEW024 29/24 A3001 RMK AO2 SLP165 T02890244

KSRC 181556Z AUTO VRB04KT 10SM FEW015 BKN070 28/24 A3001 RMK AO2 SLP167T02780239

KSRC 181523Z AUTO VRB04KT 10SM FEW009 27/24 A3002 RMK AO2

KSRC 181456Z AUTO 00000KT 10SM BKN007 BKN070 26/24 A3002 RMK AO2 SLP169 6////T02610244

KSRC 181425Z AUTO 00000KT 10SM BKN007 25/24 A3002 RMK AO2

KSRC 181413Z AUTO 00000KT 10SM BKN005 24/24 A3003 RMK AO2 CIG 004V008

KSRC 181356Z AUTO 00000KT 10SM BKN003 24/24 A3003 RMK AO2 SLP175 T02390239

KSRC 181323Z AUTO 24003KT 10SM BKN003 23/23 A3003 RMK AO2

KSRC 181256Z AUTO 10SM SCT003 BKN044 23/23 A3003 RMK AO2 SLP173 T02280228